sensor_id;sensor_type;location;lat;lon;timestamp;P1;durP1;ratioP1;P2;durP2;ratioP2
16975;SDS011;8604;48.148;-1.786;2023-07-20T00:00:00;6.90;;;2.90;;
16975;SDS011;8604;48.148;-1.786;2023-07-20T00:02:38;7.90;;;3.00;;
16975;SDS011;8604;48.148;-1.786;2023-07-20T00:05:07;7.63;;;2.80;;
16975;SDS011;8604;48.148;-1.786;2023-07-20T00:07:35;6.27;;;2.63;;
16975;SDS011;8604;48.148;-1.786;2023-07-20T00:10:04;8.80;;;3.20;;
16975;SDS011;8604;48.148;-1.786;2023-07-20T00:12:32;7.47;;;3.30;;
16975;SDS011;8604;48.148;-1.786;2023-07-20T00:15:02;9.17;;;3.20;;
16975;SDS011;8604;48.148;-1.786;2023-07-20T00:17:31;8.33;;;2.97;;
16975;SDS011;8604;48.148;-1.786;2023-07-20T00:20:00;7.30;;;3.13;;
16975;SDS011;8604;48.148;-1.786;2023-07-20T00:22:28;9.60;;;3.60;;
16975;SDS011;8604;48.148;-1.786;2023-07-20T00:24:57;9.83;;;3.40;;
16975;SDS011;8604;48.148;-1.786;2023-07-20T00:27:25;9.83;;;3.50;;
16975;SDS011;8604;48.148;-1.786;2023-07-20T00:29:53;7.37;;;3.33;;
16975;SDS011;8604;48.148;-1.786;2023-07-20T00:32:23;7.80;;;3.47;;
16975;SDS011;8604;48.148;-1.786;2023-07-20T00:34:51;7.03;;;3.57;;
16975;SDS011;8604;48.148;-1.786;2023-07-20T00:37:19;8.03;;;2.93;;
16975;SDS011;8604;48.148;-1.786;2023-07-20T00:39:48;8.30;;;3.27;;
16975;SDS011;8604;48.148;-1.786;2023-07-20T00:42:17;8.47;;;3.20;;
16975;SDS011;8604;48.148;-1.786;2023-07-20T00:44:46;7.80;;;3.13;;
16975;SDS011;8604;48.148;-1.786;2023-07-20T00:47:14;9.80;;;3.30;;
16975;SDS011;8604;48.148;-1.786;2023-07-20T00:49:44;6.40;;;2.80;;
16975;SDS011;8604;48.148;-1.786;2023-07-20T00:52:13;8.17;;;3.10;;
16975;SDS011;8604;48.148;-1.786;2023-07-20T00:54:42;5.13;;;2.90;;
16975;SDS011;8604;48.148;-1.786;2023-07-20T00:57:11;7.97;;;3.37;;
16975;SDS011;8604;48.148;-1.786;2023-07-20T00:59:42;6.83;;;2.90;;
16975;SDS011;8604;48.148;-1.786;2023-07-20T01:02:11;10.27;;;3.30;;
16975;SDS011;8604;48.148;-1.786;2023-07-20T01:04:39;8.37;;;3.43;;
16975;SDS011;8604;48.148;-1.786;2023-07-20T01:07:10;6.00;;;2.83;;
16975;SDS011;8604;48.148;-1.786;2023-07-20T01:09:44;9.97;;;3.67;;
16975;SDS011;8604;48.148;-1.786;2023-07-20T01:12:25;6.90;;;3.40;;
16975;SDS011;8604;48.148;-1.786;2023-07-20T01:14:57;9.03;;;3.10;;
16975;SDS011;8604;48.148;-1.786;2023-07-20T01:17:26;7.67;;;3.30;;
16975;SDS011;8604;48.148;-1.786;2023-07-20T01:19:54;6.50;;;3.00;;
16975;SDS011;8604;48.148;-1.786;2023-07-20T01:22:30;9.23;;;3.37;;
16975;SDS011;8604;48.148;-1.786;2023-07-20T01:25:20;8.07;;;3.23;;
16975;SDS011;8604;48.148;-1.786;2023-07-20T01:28:04;6.50;;;2.53;;
16975;SDS011;8604;48.148;-1.786;2023-07-20T01:30:55;6.97;;;3.47;;
16975;SDS011;8604;48.148;-1.786;2023-07-20T01:33:33;7.57;;;3.20;;
16975;SDS011;8604;48.148;-1.786;2023-07-20T01:36:03;7.77;;;3.47;;
16975;SDS011;8604;48.148;-1.786;2023-07-20T01:38:32;7.43;;;3.67;;
16975;SDS011;8604;48.148;-1.786;2023-07-20T01:41:01;7.80;;;3.47;;
16975;SDS011;8604;48.148;-1.786;2023-07-20T01:43:30;8.37;;;3.80;;
16975;SDS011;8604;48.148;-1.786;2023-07-20T01:45:58;10.33;;;3.90;;
16975;SDS011;8604;48.148;-1.786;2023-07-20T01:48:27;8.30;;;4.30;;
16975;SDS011;8604;48.148;-1.786;2023-07-20T01:50:56;8.67;;;4.00;;
16975;SDS011;8604;48.148;-1.786;2023-07-20T01:53:25;6.60;;;3.93;;
16975;SDS011;8604;48.148;-1.786;2023-07-20T01:55:53;8.10;;;3.83;;
16975;SDS011;8604;48.148;-1.786;2023-07-20T01:58:22;7.17;;;3.60;;
16975;SDS011;8604;48.148;-1.786;2023-07-20T02:00:51;8.70;;;4.00;;
16975;SDS011;8604;48.148;-1.786;2023-07-20T02:03:19;6.70;;;3.60;;
16975;SDS011;8604;48.148;-1.786;2023-07-20T02:05:50;8.87;;;4.00;;
16975;SDS011;8604;48.148;-1.786;2023-07-20T02:08:20;7.20;;;3.63;;
16975;SDS011;8604;48.148;-1.786;2023-07-20T02:10:48;6.40;;;3.53;;
16975;SDS011;8604;48.148;-1.786;2023-07-20T02:13:17;7.07;;;3.87;;
16975;SDS011;8604;48.148;-1.786;2023-07-20T02:15:45;6.97;;;4.00;;
16975;SDS011;8604;48.148;-1.786;2023-07-20T02:18:15;9.33;;;4.30;;
16975;SDS011;8604;48.148;-1.786;2023-07-20T02:20:44;7.43;;;4.30;;
16975;SDS011;8604;48.148;-1.786;2023-07-20T02:23:12;7.73;;;4.23;;
16975;SDS011;8604;48.148;-1.786;2023-07-20T02:25:42;7.30;;;4.30;;
16975;SDS011;8604;48.148;-1.786;2023-07-20T02:28:12;6.70;;;3.90;;
16975;SDS011;8604;48.148;-1.786;2023-07-20T02:30:41;9.87;;;4.03;;
16975;SDS011;8604;48.148;-1.786;2023-07-20T02:33:09;7.40;;;4.13;;
16975;SDS011;8604;48.148;-1.786;2023-07-20T02:35:39;7.87;;;4.27;;
16975;SDS011;8604;48.148;-1.786;2023-07-20T02:38:08;8.03;;;4.40;;
16975;SDS011;8604;48.148;-1.786;2023-07-20T02:40:36;8.27;;;4.77;;
16975;SDS011;8604;48.148;-1.786;2023-07-20T02:43:06;8.40;;;4.00;;
16975;SDS011;8604;48.148;-1.786;2023-07-20T02:45:34;10.30;;;5.00;;
16975;SDS011;8604;48.148;-1.786;2023-07-20T02:48:02;8.43;;;4.87;;
16975;SDS011;8604;48.148;-1.786;2023-07-20T02:50:34;7.93;;;4.37;;
16975;SDS011;8604;48.148;-1.786;2023-07-20T02:53:03;6.80;;;4.00;;
16975;SDS011;8604;48.148;-1.786;2023-07-20T02:55:31;7.70;;;4.40;;
16975;SDS011;8604;48.148;-1.786;2023-07-20T02:57:59;8.80;;;4.60;;
16975;SDS011;8604;48.148;-1.786;2023-07-20T03:00:29;8.57;;;4.70;;
16975;SDS011;8604;48.148;-1.786;2023-07-20T03:02:57;7.27;;;4.27;;
16975;SDS011;8604;48.148;-1.786;2023-07-20T03:05:25;8.57;;;4.73;;
16975;SDS011;8604;48.148;-1.786;2023-07-20T03:07:54;9.73;;;4.77;;
16975;SDS011;8604;48.148;-1.786;2023-07-20T03:10:23;8.83;;;5.03;;
16975;SDS011;8604;48.148;-1.786;2023-07-20T03:12:51;8.83;;;5.00;;
16975;SDS011;8604;48.148;-1.786;2023-07-20T03:15:19;7.83;;;4.70;;
16975;SDS011;8604;48.148;-1.786;2023-07-20T03:17:49;9.97;;;5.40;;
16975;SDS011;8604;48.148;-1.786;2023-07-20T03:20:18;8.93;;;4.70;;
16975;SDS011;8604;48.148;-1.786;2023-07-20T03:22:46;9.50;;;5.10;;
16975;SDS011;8604;48.148;-1.786;2023-07-20T03:25:15;8.60;;;4.87;;
16975;SDS011;8604;48.148;-1.786;2023-07-20T03:27:44;10.33;;;5.30;;
16975;SDS011;8604;48.148;-1.786;2023-07-20T03:30:13;8.57;;;4.93;;
16975;SDS011;8604;48.148;-1.786;2023-07-20T03:32:41;7.67;;;4.80;;
16975;SDS011;8604;48.148;-1.786;2023-07-20T03:35:11;8.00;;;5.13;;
16975;SDS011;8604;48.148;-1.786;2023-07-20T03:37:40;10.87;;;5.40;;
16975;SDS011;8604;48.148;-1.786;2023-07-20T03:40:08;8.60;;;5.27;;
16975;SDS011;8604;48.148;-1.786;2023-07-20T03:42:38;9.57;;;5.20;;
16975;SDS011;8604;48.148;-1.786;2023-07-20T03:45:06;7.47;;;4.80;;
16975;SDS011;8604;48.148;-1.786;2023-07-20T03:47:35;7.83;;;4.90;;
16975;SDS011;8604;48.148;-1.786;2023-07-20T03:50:04;8.57;;;4.97;;
16975;SDS011;8604;48.148;-1.786;2023-07-20T03:52:34;8.80;;;5.03;;
16975;SDS011;8604;48.148;-1.786;2023-07-20T03:55:03;9.10;;;5.20;;
16975;SDS011;8604;48.148;-1.786;2023-07-20T03:57:31;9.77;;;5.47;;
16975;SDS011;8604;48.148;-1.786;2023-07-20T04:00:00;7.67;;;4.80;;
16975;SDS011;8604;48.148;-1.786;2023-07-20T04:02:38;7.27;;;4.77;;
16975;SDS011;8604;48.148;-1.786;2023-07-20T04:05:07;6.90;;;4.57;;
16975;SDS011;8604;48.148;-1.786;2023-07-20T04:07:37;9.03;;;5.10;;
16975;SDS011;8604;48.148;-1.786;2023-07-20T04:10:05;8.43;;;4.70;;
16975;SDS011;8604;48.148;-1.786;2023-07-20T04:12:34;7.37;;;5.10;;
16975;SDS011;8604;48.148;-1.786;2023-07-20T04:15:03;8.80;;;5.07;;
16975;SDS011;8604;48.148;-1.786;2023-07-20T04:17:32;8.67;;;5.20;;
16975;SDS011;8604;48.148;-1.786;2023-07-20T04:20:01;8.47;;;5.60;;
16975;SDS011;8604;48.148;-1.786;2023-07-20T04:22:30;10.57;;;5.87;;
16975;SDS011;8604;48.148;-1.786;2023-07-20T04:25:01;8.07;;;5.00;;
16975;SDS011;8604;48.148;-1.786;2023-07-20T04:27:30;9.23;;;5.63;;
16975;SDS011;8604;48.148;-1.786;2023-07-20T04:29:58;8.83;;;5.30;;
16975;SDS011;8604;48.148;-1.786;2023-07-20T04:32:28;8.70;;;5.47;;
16975;SDS011;8604;48.148;-1.786;2023-07-20T04:34:57;11.07;;;6.47;;
16975;SDS011;8604;48.148;-1.786;2023-07-20T04:37:25;7.77;;;5.23;;
16975;SDS011;8604;48.148;-1.786;2023-07-20T04:39:54;7.90;;;5.60;;
16975;SDS011;8604;48.148;-1.786;2023-07-20T04:42:23;8.50;;;5.67;;
16975;SDS011;8604;48.148;-1.786;2023-07-20T04:44:52;9.67;;;5.20;;
16975;SDS011;8604;48.148;-1.786;2023-07-20T04:47:20;9.43;;;5.87;;
16975;SDS011;8604;48.148;-1.786;2023-07-20T04:49:50;8.80;;;5.60;;
16975;SDS011;8604;48.148;-1.786;2023-07-20T04:52:18;9.63;;;5.90;;
16975;SDS011;8604;48.148;-1.786;2023-07-20T04:54:57;9.20;;;5.50;;
16975;SDS011;8604;48.148;-1.786;2023-07-20T04:57:27;9.30;;;5.60;;
16975;SDS011;8604;48.148;-1.786;2023-07-20T04:59:55;9.50;;;5.97;;
16975;SDS011;8604;48.148;-1.786;2023-07-20T05:02:23;10.70;;;6.33;;
16975;SDS011;8604;48.148;-1.786;2023-07-20T05:04:52;10.27;;;6.23;;
16975;SDS011;8604;48.148;-1.786;2023-07-20T05:07:20;9.43;;;6.23;;
16975;SDS011;8604;48.148;-1.786;2023-07-20T05:09:49;8.90;;;5.83;;
16975;SDS011;8604;48.148;-1.786;2023-07-20T05:12:17;9.03;;;5.70;;
16975;SDS011;8604;48.148;-1.786;2023-07-20T05:14:48;8.00;;;5.53;;
16975;SDS011;8604;48.148;-1.786;2023-07-20T05:17:16;12.63;;;6.40;;
16975;SDS011;8604;48.148;-1.786;2023-07-20T05:19:45;8.73;;;6.37;;
16975;SDS011;8604;48.148;-1.786;2023-07-20T05:22:13;9.23;;;5.67;;
16975;SDS011;8604;48.148;-1.786;2023-07-20T05:24:42;9.63;;;6.50;;
16975;SDS011;8604;48.148;-1.786;2023-07-20T05:27:11;11.30;;;6.00;;
16975;SDS011;8604;48.148;-1.786;2023-07-20T05:29:43;10.60;;;6.10;;
16975;SDS011;8604;48.148;-1.786;2023-07-20T05:32:15;12.67;;;6.60;;
16975;SDS011;8604;48.148;-1.786;2023-07-20T05:34:44;8.80;;;5.50;;
16975;SDS011;8604;48.148;-1.786;2023-07-20T05:37:12;10.30;;;6.17;;
16975;SDS011;8604;48.148;-1.786;2023-07-20T05:39:41;8.70;;;5.40;;
16975;SDS011;8604;48.148;-1.786;2023-07-20T05:42:09;8.83;;;4.90;;
16975;SDS011;8604;48.148;-1.786;2023-07-20T05:44:38;9.50;;;5.90;;
16975;SDS011;8604;48.148;-1.786;2023-07-20T05:47:07;10.20;;;5.83;;
16975;SDS011;8604;48.148;-1.786;2023-07-20T05:49:37;9.53;;;5.90;;
16975;SDS011;8604;48.148;-1.786;2023-07-20T05:52:05;9.23;;;5.13;;
16975;SDS011;8604;48.148;-1.786;2023-07-20T05:54:34;9.17;;;5.33;;
16975;SDS011;8604;48.148;-1.786;2023-07-20T05:57:38;9.57;;;6.17;;
16975;SDS011;8604;48.148;-1.786;2023-07-20T06:00:09;8.10;;;5.23;;
16975;SDS011;8604;48.148;-1.786;2023-07-20T06:02:43;8.00;;;5.53;;
16975;SDS011;8604;48.148;-1.786;2023-07-20T06:05:13;9.23;;;5.70;;
16975;SDS011;8604;48.148;-1.786;2023-07-20T06:07:41;9.03;;;5.50;;
16975;SDS011;8604;48.148;-1.786;2023-07-20T06:10:10;10.33;;;5.93;;
16975;SDS011;8604;48.148;-1.786;2023-07-20T06:12:41;8.77;;;6.07;;
16975;SDS011;8604;48.148;-1.786;2023-07-20T06:15:25;7.97;;;5.20;;
16975;SDS011;8604;48.148;-1.786;2023-07-20T06:18:07;9.03;;;5.53;;
16975;SDS011;8604;48.148;-1.786;2023-07-20T06:21:03;9.57;;;5.57;;
16975;SDS011;8604;48.148;-1.786;2023-07-20T06:24:07;8.93;;;4.63;;
16975;SDS011;8604;48.148;-1.786;2023-07-20T06:26:44;8.83;;;5.50;;
16975;SDS011;8604;48.148;-1.786;2023-07-20T06:29:29;7.83;;;5.47;;
16975;SDS011;8604;48.148;-1.786;2023-07-20T06:32:19;8.87;;;5.67;;
16975;SDS011;8604;48.148;-1.786;2023-07-20T06:34:59;9.63;;;4.87;;
16975;SDS011;8604;48.148;-1.786;2023-07-20T06:41:19;6.90;;;4.37;;
16975;SDS011;8604;48.148;-1.786;2023-07-20T06:44:07;7.17;;;4.30;;
16975;SDS011;8604;48.148;-1.786;2023-07-20T06:47:39;5.57;;;3.60;;
16975;SDS011;8604;48.148;-1.786;2023-07-20T06:50:08;7.20;;;4.17;;
16975;SDS011;8604;48.148;-1.786;2023-07-20T06:52:43;7.23;;;4.13;;
16975;SDS011;8604;48.148;-1.786;2023-07-20T06:55:16;6.97;;;3.30;;
16975;SDS011;8604;48.148;-1.786;2023-07-20T06:57:47;7.43;;;4.70;;
16975;SDS011;8604;48.148;-1.786;2023-07-20T07:00:16;7.40;;;4.10;;
16975;SDS011;8604;48.148;-1.786;2023-07-20T07:02:44;5.10;;;3.43;;
16975;SDS011;8604;48.148;-1.786;2023-07-20T07:05:16;7.00;;;4.07;;
16975;SDS011;8604;48.148;-1.786;2023-07-20T07:07:47;7.77;;;4.20;;
16975;SDS011;8604;48.148;-1.786;2023-07-20T07:10:16;7.13;;;3.60;;
16975;SDS011;8604;48.148;-1.786;2023-07-20T07:12:45;8.87;;;3.97;;
16975;SDS011;8604;48.148;-1.786;2023-07-20T07:15:13;6.63;;;3.60;;
16975;SDS011;8604;48.148;-1.786;2023-07-20T07:17:43;6.17;;;3.67;;
16975;SDS011;8604;48.148;-1.786;2023-07-20T07:20:11;6.60;;;3.73;;
16975;SDS011;8604;48.148;-1.786;2023-07-20T07:22:47;6.50;;;3.47;;
16975;SDS011;8604;48.148;-1.786;2023-07-20T07:25:18;6.23;;;3.27;;
16975;SDS011;8604;48.148;-1.786;2023-07-20T07:27:49;7.17;;;3.80;;
16975;SDS011;8604;48.148;-1.786;2023-07-20T07:30:19;5.23;;;3.10;;
16975;SDS011;8604;48.148;-1.786;2023-07-20T07:32:48;7.47;;;3.10;;
16975;SDS011;8604;48.148;-1.786;2023-07-20T07:35:16;6.37;;;2.80;;
16975;SDS011;8604;48.148;-1.786;2023-07-20T07:37:45;7.10;;;3.33;;
16975;SDS011;8604;48.148;-1.786;2023-07-20T07:40:34;7.80;;;3.43;;
16975;SDS011;8604;48.148;-1.786;2023-07-20T07:43:03;6.37;;;3.27;;
16975;SDS011;8604;48.148;-1.786;2023-07-20T07:45:34;5.63;;;3.40;;
16975;SDS011;8604;48.148;-1.786;2023-07-20T07:48:04;6.23;;;2.93;;
16975;SDS011;8604;48.148;-1.786;2023-07-20T07:50:33;7.07;;;3.47;;
16975;SDS011;8604;48.148;-1.786;2023-07-20T07:53:02;5.80;;;3.10;;
16975;SDS011;8604;48.148;-1.786;2023-07-20T07:55:30;6.73;;;3.23;;
16975;SDS011;8604;48.148;-1.786;2023-07-20T07:58:00;6.03;;;3.40;;
16975;SDS011;8604;48.148;-1.786;2023-07-20T08:00:29;5.37;;;2.90;;
16975;SDS011;8604;48.148;-1.786;2023-07-20T08:02:57;5.50;;;2.80;;
16975;SDS011;8604;48.148;-1.786;2023-07-20T08:05:27;5.00;;;2.53;;
16975;SDS011;8604;48.148;-1.786;2023-07-20T08:07:55;4.13;;;2.60;;
16975;SDS011;8604;48.148;-1.786;2023-07-20T08:10:24;4.30;;;2.20;;
16975;SDS011;8604;48.148;-1.786;2023-07-20T08:12:52;5.00;;;2.53;;
16975;SDS011;8604;48.148;-1.786;2023-07-20T08:15:23;5.90;;;2.60;;
16975;SDS011;8604;48.148;-1.786;2023-07-20T08:17:51;4.10;;;2.40;;
16975;SDS011;8604;48.148;-1.786;2023-07-20T08:20:20;5.53;;;2.40;;
16975;SDS011;8604;48.148;-1.786;2023-07-20T08:22:53;5.63;;;2.90;;
16975;SDS011;8604;48.148;-1.786;2023-07-20T08:25:22;6.17;;;2.67;;
16975;SDS011;8604;48.148;-1.786;2023-07-20T08:27:50;8.77;;;3.63;;
16975;SDS011;8604;48.148;-1.786;2023-07-20T08:30:20;7.93;;;3.37;;
16975;SDS011;8604;48.148;-1.786;2023-07-20T08:32:51;4.97;;;2.40;;
16975;SDS011;8604;48.148;-1.786;2023-07-20T08:35:19;6.87;;;2.80;;
16975;SDS011;8604;48.148;-1.786;2023-07-20T08:40:43;5.23;;;2.57;;
16975;SDS011;8604;48.148;-1.786;2023-07-20T08:43:12;5.20;;;2.73;;
16975;SDS011;8604;48.148;-1.786;2023-07-20T08:45:44;5.23;;;2.20;;
16975;SDS011;8604;48.148;-1.786;2023-07-20T08:48:13;5.30;;;2.23;;
16975;SDS011;8604;48.148;-1.786;2023-07-20T08:50:42;5.17;;;2.23;;
16975;SDS011;8604;48.148;-1.786;2023-07-20T08:53:11;5.40;;;2.47;;
16975;SDS011;8604;48.148;-1.786;2023-07-20T08:55:40;3.50;;;2.00;;
16975;SDS011;8604;48.148;-1.786;2023-07-20T08:58:12;4.65;;;2.10;;
16975;SDS011;8604;48.148;-1.786;2023-07-20T09:00:41;4.50;;;2.10;;
16975;SDS011;8604;48.148;-1.786;2023-07-20T09:03:14;4.60;;;2.40;;
16975;SDS011;8604;48.148;-1.786;2023-07-20T09:05:43;5.18;;;2.30;;
16975;SDS011;8604;48.148;-1.786;2023-07-20T09:08:12;4.57;;;2.50;;
16975;SDS011;8604;48.148;-1.786;2023-07-20T09:10:41;4.72;;;2.10;;
16975;SDS011;8604;48.148;-1.786;2023-07-20T09:13:09;4.95;;;2.28;;
16975;SDS011;8604;48.148;-1.786;2023-07-20T09:15:45;5.60;;;2.22;;
16975;SDS011;8604;48.148;-1.786;2023-07-20T09:18:24;3.60;;;2.08;;
16975;SDS011;8604;48.148;-1.786;2023-07-20T09:20:52;4.85;;;2.30;;
16975;SDS011;8604;48.148;-1.786;2023-07-20T09:23:23;5.25;;;2.05;;
16975;SDS011;8604;48.148;-1.786;2023-07-20T09:25:59;4.38;;;2.08;;
16975;SDS011;8604;48.148;-1.786;2023-07-20T09:28:27;4.40;;;2.08;;
16975;SDS011;8604;48.148;-1.786;2023-07-20T09:30:56;3.55;;;1.90;;
16975;SDS011;8604;48.148;-1.786;2023-07-20T09:33:26;4.03;;;2.00;;
16975;SDS011;8604;48.148;-1.786;2023-07-20T09:36:01;4.65;;;2.22;;
16975;SDS011;8604;48.148;-1.786;2023-07-20T09:38:50;4.40;;;2.05;;
16975;SDS011;8604;48.148;-1.786;2023-07-20T09:41:21;3.80;;;1.90;;
16975;SDS011;8604;48.148;-1.786;2023-07-20T09:43:53;5.28;;;2.17;;
16975;SDS011;8604;48.148;-1.786;2023-07-20T09:46:22;4.00;;;1.90;;
16975;SDS011;8604;48.148;-1.786;2023-07-20T09:48:54;5.97;;;3.13;;
16975;SDS011;8604;48.148;-1.786;2023-07-20T09:51:26;6.20;;;1.92;;
16975;SDS011;8604;48.148;-1.786;2023-07-20T09:53:55;4.78;;;2.10;;
16975;SDS011;8604;48.148;-1.786;2023-07-20T09:56:24;3.67;;;1.88;;
16975;SDS011;8604;48.148;-1.786;2023-07-20T09:58:55;5.97;;;2.10;;
16975;SDS011;8604;48.148;-1.786;2023-07-20T10:01:23;5.10;;;2.50;;
16975;SDS011;8604;48.148;-1.786;2023-07-20T10:03:56;5.00;;;2.10;;
16975;SDS011;8604;48.148;-1.786;2023-07-20T10:06:28;5.07;;;2.28;;
16975;SDS011;8604;48.148;-1.786;2023-07-20T10:09:01;4.45;;;2.20;;
16975;SDS011;8604;48.148;-1.786;2023-07-20T10:11:31;3.72;;;1.90;;
16975;SDS011;8604;48.148;-1.786;2023-07-20T10:14:03;4.05;;;2.05;;
16975;SDS011;8604;48.148;-1.786;2023-07-20T10:16:34;4.65;;;2.00;;
16975;SDS011;8604;48.148;-1.786;2023-07-20T10:19:07;3.90;;;1.70;;
16975;SDS011;8604;48.148;-1.786;2023-07-20T10:21:46;3.90;;;2.00;;
16975;SDS011;8604;48.148;-1.786;2023-07-20T10:24:22;3.58;;;1.90;;
16975;SDS011;8604;48.148;-1.786;2023-07-20T10:26:51;3.03;;;1.65;;
16975;SDS011;8604;48.148;-1.786;2023-07-20T10:29:19;5.82;;;2.35;;
16975;SDS011;8604;48.148;-1.786;2023-07-20T10:31:49;5.30;;;2.05;;
16975;SDS011;8604;48.148;-1.786;2023-07-20T10:34:22;3.03;;;1.75;;
16975;SDS011;8604;48.148;-1.786;2023-07-20T10:36:51;4.28;;;1.95;;
16975;SDS011;8604;48.148;-1.786;2023-07-20T10:39:24;4.28;;;1.88;;
16975;SDS011;8604;48.148;-1.786;2023-07-20T10:42:03;4.20;;;1.90;;
16975;SDS011;8604;48.148;-1.786;2023-07-20T10:44:36;5.28;;;2.08;;
16975;SDS011;8604;48.148;-1.786;2023-07-20T10:47:08;3.80;;;1.77;;
16975;SDS011;8604;48.148;-1.786;2023-07-20T10:52:36;4.22;;;1.90;;
16975;SDS011;8604;48.148;-1.786;2023-07-20T10:55:10;3.95;;;1.67;;
16975;SDS011;8604;48.148;-1.786;2023-07-20T10:57:39;2.78;;;1.60;;
16975;SDS011;8604;48.148;-1.786;2023-07-20T11:00:08;4.70;;;2.00;;
16975;SDS011;8604;48.148;-1.786;2023-07-20T11:02:42;3.25;;;1.75;;
16975;SDS011;8604;48.148;-1.786;2023-07-20T11:05:34;4.00;;;1.70;;
16975;SDS011;8604;48.148;-1.786;2023-07-20T11:08:04;2.67;;;1.70;;
16975;SDS011;8604;48.148;-1.786;2023-07-20T11:10:33;2.92;;;1.77;;
16975;SDS011;8604;48.148;-1.786;2023-07-20T11:13:18;2.72;;;1.60;;
16975;SDS011;8604;48.148;-1.786;2023-07-20T11:15:48;3.22;;;1.67;;
16975;SDS011;8604;48.148;-1.786;2023-07-20T11:18:30;3.88;;;1.90;;
16975;SDS011;8604;48.148;-1.786;2023-07-20T11:21:01;3.42;;;1.70;;
16975;SDS011;8604;48.148;-1.786;2023-07-20T11:23:30;3.17;;;1.80;;
16975;SDS011;8604;48.148;-1.786;2023-07-20T11:26:00;3.38;;;1.83;;
16975;SDS011;8604;48.148;-1.786;2023-07-20T11:28:30;2.53;;;1.45;;
16975;SDS011;8604;48.148;-1.786;2023-07-20T11:30:58;3.00;;;1.50;;
16975;SDS011;8604;48.148;-1.786;2023-07-20T11:33:27;3.38;;;1.75;;
16975;SDS011;8604;48.148;-1.786;2023-07-20T11:35:55;2.20;;;1.60;;
16975;SDS011;8604;48.148;-1.786;2023-07-20T11:38:25;2.50;;;1.50;;
16975;SDS011;8604;48.148;-1.786;2023-07-20T11:40:53;3.33;;;1.55;;
16975;SDS011;8604;48.148;-1.786;2023-07-20T11:43:21;2.50;;;1.23;;
16975;SDS011;8604;48.148;-1.786;2023-07-20T11:45:52;3.00;;;1.60;;
16975;SDS011;8604;48.148;-1.786;2023-07-20T11:48:21;3.08;;;1.70;;
16975;SDS011;8604;48.148;-1.786;2023-07-20T11:50:49;2.58;;;1.50;;
16975;SDS011;8604;48.148;-1.786;2023-07-20T11:53:17;5.05;;;1.65;;
16975;SDS011;8604;48.148;-1.786;2023-07-20T11:55:48;3.25;;;1.67;;
16975;SDS011;8604;48.148;-1.786;2023-07-20T11:58:17;5.03;;;1.70;;
16975;SDS011;8604;48.148;-1.786;2023-07-20T12:00:45;4.75;;;2.00;;
16975;SDS011;8604;48.148;-1.786;2023-07-20T12:03:14;3.65;;;1.77;;
16975;SDS011;8604;48.148;-1.786;2023-07-20T12:05:42;4.35;;;1.83;;
16975;SDS011;8604;48.148;-1.786;2023-07-20T12:08:26;3.20;;;1.60;;
16975;SDS011;8604;48.148;-1.786;2023-07-20T12:10:56;3.60;;;1.70;;
16975;SDS011;8604;48.148;-1.786;2023-07-20T12:13:34;3.72;;;1.73;;
16975;SDS011;8604;48.148;-1.786;2023-07-20T12:16:08;2.55;;;1.50;;
16975;SDS011;8604;48.148;-1.786;2023-07-20T12:18:40;3.63;;;1.58;;
16975;SDS011;8604;48.148;-1.786;2023-07-20T12:21:08;3.83;;;1.67;;
16975;SDS011;8604;48.148;-1.786;2023-07-20T12:23:38;2.70;;;1.35;;
16975;SDS011;8604;48.148;-1.786;2023-07-20T12:29:42;3.35;;;1.50;;
16975;SDS011;8604;48.148;-1.786;2023-07-20T12:32:10;5.18;;;1.70;;
16975;SDS011;8604;48.148;-1.786;2023-07-20T12:34:39;2.75;;;1.48;;
16975;SDS011;8604;48.148;-1.786;2023-07-20T12:37:08;2.13;;;1.52;;
16975;SDS011;8604;48.148;-1.786;2023-07-20T12:39:38;2.42;;;1.52;;
16975;SDS011;8604;48.148;-1.786;2023-07-20T12:42:08;2.50;;;1.50;;
16975;SDS011;8604;48.148;-1.786;2023-07-20T12:44:36;4.35;;;1.60;;
16975;SDS011;8604;48.148;-1.786;2023-07-20T12:47:07;3.55;;;1.50;;
16975;SDS011;8604;48.148;-1.786;2023-07-20T12:49:35;3.85;;;1.65;;
16975;SDS011;8604;48.148;-1.786;2023-07-20T12:52:04;1.63;;;1.33;;
16975;SDS011;8604;48.148;-1.786;2023-07-20T12:54:34;3.78;;;1.70;;
16975;SDS011;8604;48.148;-1.786;2023-07-20T12:57:02;3.60;;;1.65;;
16975;SDS011;8604;48.148;-1.786;2023-07-20T12:59:34;3.35;;;1.40;;
16975;SDS011;8604;48.148;-1.786;2023-07-20T13:02:03;2.88;;;1.80;;
16975;SDS011;8604;48.148;-1.786;2023-07-20T13:04:34;2.83;;;1.70;;
16975;SDS011;8604;48.148;-1.786;2023-07-20T13:07:03;3.42;;;1.50;;
16975;SDS011;8604;48.148;-1.786;2023-07-20T13:09:52;3.15;;;1.42;;
16975;SDS011;8604;48.148;-1.786;2023-07-20T13:12:20;3.83;;;1.60;;
16975;SDS011;8604;48.148;-1.786;2023-07-20T13:14:49;3.83;;;1.70;;
16975;SDS011;8604;48.148;-1.786;2023-07-20T13:17:18;3.80;;;1.80;;
16975;SDS011;8604;48.148;-1.786;2023-07-20T13:19:48;2.83;;;1.50;;
16975;SDS011;8604;48.148;-1.786;2023-07-20T13:22:17;2.63;;;1.42;;
16975;SDS011;8604;48.148;-1.786;2023-07-20T13:24:45;4.30;;;1.80;;
16975;SDS011;8604;48.148;-1.786;2023-07-20T13:27:15;1.75;;;1.50;;
16975;SDS011;8604;48.148;-1.786;2023-07-20T13:29:45;2.25;;;1.45;;
16975;SDS011;8604;48.148;-1.786;2023-07-20T13:32:14;2.22;;;1.40;;
16975;SDS011;8604;48.148;-1.786;2023-07-20T13:34:44;2.42;;;1.60;;
16975;SDS011;8604;48.148;-1.786;2023-07-20T13:37:16;2.75;;;1.40;;
16975;SDS011;8604;48.148;-1.786;2023-07-20T13:39:47;3.88;;;1.70;;
16975;SDS011;8604;48.148;-1.786;2023-07-20T13:42:16;2.15;;;1.40;;
16975;SDS011;8604;48.148;-1.786;2023-07-20T13:44:45;3.28;;;1.67;;
16975;SDS011;8604;48.148;-1.786;2023-07-20T13:47:14;3.80;;;1.63;;
16975;SDS011;8604;48.148;-1.786;2023-07-20T13:49:45;4.97;;;1.70;;
16975;SDS011;8604;48.148;-1.786;2023-07-20T13:52:16;3.30;;;1.80;;
16975;SDS011;8604;48.148;-1.786;2023-07-20T13:54:47;2.95;;;1.80;;
16975;SDS011;8604;48.148;-1.786;2023-07-20T13:57:20;2.97;;;1.70;;
16975;SDS011;8604;48.148;-1.786;2023-07-20T13:59:49;3.83;;;1.80;;
16975;SDS011;8604;48.148;-1.786;2023-07-20T14:02:18;3.27;;;1.70;;
16975;SDS011;8604;48.148;-1.786;2023-07-20T14:04:49;4.17;;;1.90;;
16975;SDS011;8604;48.148;-1.786;2023-07-20T14:07:40;4.57;;;1.90;;
16975;SDS011;8604;48.148;-1.786;2023-07-20T14:10:10;3.40;;;1.80;;
16975;SDS011;8604;48.148;-1.786;2023-07-20T14:12:41;8.10;;;2.00;;
16975;SDS011;8604;48.148;-1.786;2023-07-20T14:15:10;3.77;;;1.70;;
16975;SDS011;8604;48.148;-1.786;2023-07-20T14:17:39;4.87;;;2.00;;
16975;SDS011;8604;48.148;-1.786;2023-07-20T14:20:13;5.13;;;1.80;;
16975;SDS011;8604;48.148;-1.786;2023-07-20T14:23:10;3.90;;;1.75;;
16975;SDS011;8604;48.148;-1.786;2023-07-20T14:25:40;2.70;;;1.80;;
16975;SDS011;8604;48.148;-1.786;2023-07-20T14:28:09;3.90;;;1.90;;
16975;SDS011;8604;48.148;-1.786;2023-07-20T14:30:38;3.67;;;1.80;;
16975;SDS011;8604;48.148;-1.786;2023-07-20T14:33:07;3.90;;;1.70;;
16975;SDS011;8604;48.148;-1.786;2023-07-20T14:35:36;4.40;;;1.77;;
16975;SDS011;8604;48.148;-1.786;2023-07-20T14:38:04;2.47;;;1.53;;
16975;SDS011;8604;48.148;-1.786;2023-07-20T14:40:34;4.47;;;1.80;;
16975;SDS011;8604;48.148;-1.786;2023-07-20T14:43:03;3.93;;;1.60;;
16975;SDS011;8604;48.148;-1.786;2023-07-20T14:45:31;2.93;;;1.50;;
16975;SDS011;8604;48.148;-1.786;2023-07-20T14:48:00;3.47;;;1.80;;
16975;SDS011;8604;48.148;-1.786;2023-07-20T14:50:28;3.27;;;1.80;;
16975;SDS011;8604;48.148;-1.786;2023-07-20T14:52:57;4.23;;;1.70;;
16975;SDS011;8604;48.148;-1.786;2023-07-20T14:55:32;2.97;;;1.77;;
16975;SDS011;8604;48.148;-1.786;2023-07-20T14:58:02;3.47;;;1.70;;
16975;SDS011;8604;48.148;-1.786;2023-07-20T15:00:30;5.40;;;1.80;;
16975;SDS011;8604;48.148;-1.786;2023-07-20T15:03:14;2.97;;;1.60;;
16975;SDS011;8604;48.148;-1.786;2023-07-20T15:05:43;4.13;;;1.77;;
16975;SDS011;8604;48.148;-1.786;2023-07-20T15:08:12;9.70;;;2.00;;
16975;SDS011;8604;48.148;-1.786;2023-07-20T15:10:40;5.10;;;1.70;;
16975;SDS011;8604;48.148;-1.786;2023-07-20T15:13:13;4.17;;;1.77;;
16975;SDS011;8604;48.148;-1.786;2023-07-20T15:15:42;5.00;;;1.90;;
16975;SDS011;8604;48.148;-1.786;2023-07-20T15:18:11;3.13;;;1.77;;
16975;SDS011;8604;48.148;-1.786;2023-07-20T15:20:39;2.90;;;1.80;;
16975;SDS011;8604;48.148;-1.786;2023-07-20T15:23:08;4.33;;;1.80;;